Fene, Spain
Current Conditions -  °F | °C
As of 10:40 AM on Wednesday 22 Oct 2014 (Local Time) from LECO Reporting Station
Light Fog Light Fog  
Wind Chill: 57°   Ceiling: Unl
Heat Index: 57°   Visibility: 1.8mi
Dew Point: 57°   Wind: 1mph
Humidity: 100%   Direction: NA
Pressure: 30.42"   Gusts: NA
Location:  43.45°N, 8.15°W
Report Text: LECO 220840Z VRB01KT 3000 0300E R21/1400U R03/1400U BCFGNSC 14/14 Q1030 TEMPO 1200 BCFG
Loading
Personal Weather Stations






























Interactive Weather Map
Tropical Storm Tracking
New forecast layout! Learn more

10-Day Weather Forecast

Advertisements
Track Severe Weather on mobile